Monday, April 24, 2017, 4:56 PM EDT

KIPT, Williamsport-lycoming County

Location: Montoursville, PA, United States Lat: 41.25
Local Time: 4:56 PM EDT (20:56 GMT) Lon: -76.917
Time Zone: US/Eastern Elev: 528 ft

Show me the last for .
Show Decoded

2017-04-24 15:54 METAR KIPT 241954Z 11006KT 10SM FEW110 19/01 A3006 RMK AO2 SLP180 T01940011 =
2017-04-24 14:54 METAR KIPT 241854Z 11010KT 10SM CLR 21/01 A3008 RMK AO2 SLP186 T02060011 =
2017-04-24 13:54 METAR KIPT 241754Z 12004KT 10SM CLR 19/05 A3009 RMK AO2 SLP190 T01940050 10200
                 20067 58009 =
2017-04-24 12:54 METAR KIPT 241654Z 00000KT 10SM CLR 18/05 A3010 =
2017-04-24 11:54 METAR KIPT 241554Z 00000KT 10SM CLR 15/06 A3012 RMK AO2 SLP199 T01500056 =
2017-04-24 10:54 METAR KIPT 241454Z 00000KT 10SM CLR 13/05 A3012 RMK AO2 SLP200 T01280050 58003 =
2017-04-24 09:54 METAR KIPT 241354Z 00000KT 10SM CLR 11/05 A3013 RMK AO2 SLP203 T01060050 =
2017-04-24 08:54 METAR KIPT 241254Z 00000KT 10SM CLR 08/04 A3014 RMK AO2 SLP208 T00830044 =
2017-04-24 07:54 METAR KIPT 241154Z 00000KT 10SM CLR 07/03 A3013 RMK AO2 SLP203 T00670033 10078
                 20039 51014 =
2017-04-24 06:54 METAR KIPT 241054Z 34003KT 10SM CLR 05/03 A3012 RMK AO2 SLP202 T00500028 =
2017-04-24 05:54 METAR KIPT 240954Z AUTO 31003KT 10SM CLR 04/03 A3009 RMK AO2 SLP192 T00440028 =
2017-04-24 04:54 METAR KIPT 240854Z AUTO 33003KT 10SM CLR 05/03 A3008 RMK AO2 SLP188 T00500028
                 50002 =
2017-04-24 03:54 METAR KIPT 240754Z AUTO 00000KT 10SM CLR 06/03 A3009 RMK AO2 SLP190 T00560028 =
2017-04-24 02:54 METAR KIPT 240654Z AUTO 33003KT 10SM CLR 07/03 A3008 RMK AO2 SLP186 T00670033 =
2017-04-24 01:54 METAR KIPT 240554Z AUTO 00000KT 10SM CLR 08/03 A3008 RMK AO2 SLP186 T00780033
                 10178 20067 50003 =
2017-04-24 00:54 METAR KIPT 240454Z AUTO 00000KT 10SM CLR 09/04 A3008 RMK AO2 SLP187 T00940039
                 402060011 =
2017-04-23 23:54 METAR KIPT 240354Z AUTO 00000KT 10SM CLR 09/04 A3008 RMK AO2 SLP186 T00940039 =
2017-04-23 22:54 METAR KIPT 240254Z AUTO 00000KT 10SM CLR 11/03 A3007 RMK AO2 SLP183 T01060033
                 53014 =
2017-04-23 21:54 METAR KIPT 240154Z 36005KT 10SM CLR 13/03 A3005 RMK AO2 SLP178 T01280033 =
2017-04-23 20:54 METAR KIPT 240054Z 02005KT 10SM CLR 16/01 A3004 RMK AO2 SLP173 T01610006 =
2017-04-23 19:54 METAR KIPT 232354Z 00000KT 10SM CLR 17/M01 A3003 RMK AO2 SLP169 T01721006 10206
                 20172 51002 =
2017-04-23 18:54 METAR KIPT 232254Z 19005KT 10SM CLR 19/M02 A3003 RMK AO2 SLP169 T01941022 =
2017-04-23 17:54 METAR KIPT 232154Z VRB04KT 10SM CLR 19/00 A3002 RMK AO2 SLP167 T01940000 =

Support USWX by starting your Amazon purchase here.